sensor_id;sensor_type;location;lat;lon;timestamp;P1;durP1;ratioP1;P2;durP2;ratioP2
70985;SDS011;58645;43.068;25.610;2022-08-21T00:02:02;10.85;;;6.93;;
70985;SDS011;58645;43.068;25.610;2022-08-21T00:04:28;12.57;;;6.18;;
70985;SDS011;58645;43.068;25.610;2022-08-21T00:06:55;11.65;;;6.32;;
70985;SDS011;58645;43.068;25.610;2022-08-21T00:09:20;8.75;;;5.95;;
70985;SDS011;58645;43.068;25.610;2022-08-21T00:11:46;12.57;;;6.35;;
70985;SDS011;58645;43.068;25.610;2022-08-21T00:14:13;8.75;;;5.40;;
70985;SDS011;58645;43.068;25.610;2022-08-21T00:16:39;10.40;;;7.53;;
70985;SDS011;58645;43.068;25.610;2022-08-21T00:19:05;12.13;;;6.28;;
70985;SDS011;58645;43.068;25.610;2022-08-21T00:21:32;11.10;;;7.78;;
70985;SDS011;58645;43.068;25.610;2022-08-21T00:23:59;8.48;;;6.18;;
70985;SDS011;58645;43.068;25.610;2022-08-21T00:28:52;10.98;;;7.07;;
70985;SDS011;58645;43.068;25.610;2022-08-21T00:31:18;12.10;;;7.53;;
70985;SDS011;58645;43.068;25.610;2022-08-21T00:33:44;12.90;;;6.95;;
70985;SDS011;58645;43.068;25.610;2022-08-21T00:38:36;9.55;;;6.57;;
70985;SDS011;58645;43.068;25.610;2022-08-21T00:41:03;14.23;;;7.63;;
70985;SDS011;58645;43.068;25.610;2022-08-21T00:43:32;12.98;;;6.90;;
70985;SDS011;58645;43.068;25.610;2022-08-21T00:46:00;12.60;;;7.70;;
70985;SDS011;58645;43.068;25.610;2022-08-21T00:48:27;13.40;;;7.57;;
70985;SDS011;58645;43.068;25.610;2022-08-21T00:51:06;17.50;;;8.25;;
70985;SDS011;58645;43.068;25.610;2022-08-21T00:53:37;11.88;;;7.43;;
70985;SDS011;58645;43.068;25.610;2022-08-21T00:56:05;13.90;;;7.90;;
70985;SDS011;58645;43.068;25.610;2022-08-21T00:58:34;17.25;;;7.32;;
70985;SDS011;58645;43.068;25.610;2022-08-21T01:01:03;12.98;;;6.95;;
70985;SDS011;58645;43.068;25.610;2022-08-21T01:03:30;15.35;;;7.55;;
70985;SDS011;58645;43.068;25.610;2022-08-21T01:05:56;12.93;;;7.80;;
70985;SDS011;58645;43.068;25.610;2022-08-21T01:08:22;12.65;;;8.57;;
70985;SDS011;58645;43.068;25.610;2022-08-21T01:10:49;16.67;;;10.90;;
70985;SDS011;58645;43.068;25.610;2022-08-21T01:13:17;14.95;;;9.93;;
70985;SDS011;58645;43.068;25.610;2022-08-21T01:15:44;14.27;;;9.75;;
70985;SDS011;58645;43.068;25.610;2022-08-21T01:18:14;12.52;;;8.60;;
70985;SDS011;58645;43.068;25.610;2022-08-21T01:23:26;15.02;;;10.55;;
70985;SDS011;58645;43.068;25.610;2022-08-21T01:28:18;15.95;;;8.75;;
70985;SDS011;58645;43.068;25.610;2022-08-21T01:30:46;20.08;;;9.60;;
70985;SDS011;58645;43.068;25.610;2022-08-21T01:33:13;15.05;;;9.00;;
70985;SDS011;58645;43.068;25.610;2022-08-21T01:35:39;13.75;;;8.57;;
70985;SDS011;58645;43.068;25.610;2022-08-21T01:38:05;13.20;;;8.77;;
70985;SDS011;58645;43.068;25.610;2022-08-21T01:40:31;14.27;;;7.45;;
70985;SDS011;58645;43.068;25.610;2022-08-21T01:42:56;10.90;;;6.85;;
70985;SDS011;58645;43.068;25.610;2022-08-21T01:45:22;11.55;;;7.85;;
70985;SDS011;58645;43.068;25.610;2022-08-21T01:47:48;10.98;;;6.80;;
70985;SDS011;58645;43.068;25.610;2022-08-21T01:50:15;9.75;;;6.47;;
70985;SDS011;58645;43.068;25.610;2022-08-21T01:52:43;9.80;;;6.82;;
70985;SDS011;58645;43.068;25.610;2022-08-21T01:55:10;11.50;;;8.05;;
70985;SDS011;58645;43.068;25.610;2022-08-21T01:57:36;12.35;;;7.68;;
70985;SDS011;58645;43.068;25.610;2022-08-21T02:02:33;21.95;;;13.38;;
70985;SDS011;58645;43.068;25.610;2022-08-21T02:04:59;14.23;;;7.35;;
70985;SDS011;58645;43.068;25.610;2022-08-21T02:07:25;15.88;;;8.55;;
70985;SDS011;58645;43.068;25.610;2022-08-21T02:09:51;13.20;;;8.38;;
70985;SDS011;58645;43.068;25.610;2022-08-21T02:12:16;33.50;;;21.35;;
70985;SDS011;58645;43.068;25.610;2022-08-21T02:14:42;26.38;;;18.70;;
70985;SDS011;58645;43.068;25.610;2022-08-21T02:17:08;21.13;;;13.63;;
70985;SDS011;58645;43.068;25.610;2022-08-21T02:19:34;21.15;;;14.20;;
70985;SDS011;58645;43.068;25.610;2022-08-21T02:21:59;15.48;;;11.50;;
70985;SDS011;58645;43.068;25.610;2022-08-21T02:24:25;18.48;;;13.48;;
70985;SDS011;58645;43.068;25.610;2022-08-21T02:26:51;20.00;;;14.88;;
70985;SDS011;58645;43.068;25.610;2022-08-21T02:29:17;22.15;;;16.40;;
70985;SDS011;58645;43.068;25.610;2022-08-21T02:31:42;25.20;;;19.10;;
70985;SDS011;58645;43.068;25.610;2022-08-21T02:36:34;19.25;;;13.02;;
70985;SDS011;58645;43.068;25.610;2022-08-21T02:39:00;17.08;;;11.80;;
70985;SDS011;58645;43.068;25.610;2022-08-21T02:41:26;15.50;;;9.85;;
70985;SDS011;58645;43.068;25.610;2022-08-21T02:43:52;13.07;;;9.70;;
70985;SDS011;58645;43.068;25.610;2022-08-21T02:46:19;14.10;;;8.80;;
70985;SDS011;58645;43.068;25.610;2022-08-21T02:48:46;14.38;;;8.45;;
70985;SDS011;58645;43.068;25.610;2022-08-21T02:51:13;14.70;;;9.45;;
70985;SDS011;58645;43.068;25.610;2022-08-21T02:53:45;13.15;;;10.05;;
70985;SDS011;58645;43.068;25.610;2022-08-21T02:56:13;16.40;;;10.75;;
70985;SDS011;58645;43.068;25.610;2022-08-21T02:58:42;15.30;;;11.07;;
70985;SDS011;58645;43.068;25.610;2022-08-21T03:01:10;14.55;;;10.15;;
70985;SDS011;58645;43.068;25.610;2022-08-21T03:03:37;14.88;;;10.60;;
70985;SDS011;58645;43.068;25.610;2022-08-21T03:06:06;14.80;;;11.68;;
70985;SDS011;58645;43.068;25.610;2022-08-21T03:08:33;18.70;;;11.50;;
70985;SDS011;58645;43.068;25.610;2022-08-21T03:10:59;18.27;;;11.60;;
70985;SDS011;58645;43.068;25.610;2022-08-21T03:13:26;18.63;;;12.88;;
70985;SDS011;58645;43.068;25.610;2022-08-21T03:15:52;15.32;;;11.75;;
70985;SDS011;58645;43.068;25.610;2022-08-21T03:18:18;16.40;;;11.70;;
70985;SDS011;58645;43.068;25.610;2022-08-21T03:20:45;15.90;;;10.07;;
70985;SDS011;58645;43.068;25.610;2022-08-21T03:23:11;17.67;;;10.15;;
70985;SDS011;58645;43.068;25.610;2022-08-21T03:25:37;17.98;;;11.57;;
70985;SDS011;58645;43.068;25.610;2022-08-21T03:28:04;16.55;;;11.10;;
70985;SDS011;58645;43.068;25.610;2022-08-21T03:30:35;16.83;;;11.00;;
70985;SDS011;58645;43.068;25.610;2022-08-21T03:33:01;18.73;;;12.65;;
70985;SDS011;58645;43.068;25.610;2022-08-21T03:35:27;16.27;;;11.38;;
70985;SDS011;58645;43.068;25.610;2022-08-21T03:37:54;18.30;;;11.23;;
70985;SDS011;58645;43.068;25.610;2022-08-21T03:40:20;14.90;;;10.98;;
70985;SDS011;58645;43.068;25.610;2022-08-21T03:42:47;18.98;;;13.00;;
70985;SDS011;58645;43.068;25.610;2022-08-21T03:45:14;16.73;;;12.27;;
70985;SDS011;58645;43.068;25.610;2022-08-21T03:48:00;26.60;;;13.18;;
70985;SDS011;58645;43.068;25.610;2022-08-21T03:50:30;15.23;;;11.43;;
70985;SDS011;58645;43.068;25.610;2022-08-21T03:52:58;16.73;;;10.63;;
70985;SDS011;58645;43.068;25.610;2022-08-21T03:55:24;14.45;;;10.52;;
70985;SDS011;58645;43.068;25.610;2022-08-21T03:57:51;15.43;;;9.27;;
70985;SDS011;58645;43.068;25.610;2022-08-21T04:02:43;14.38;;;9.65;;
70985;SDS011;58645;43.068;25.610;2022-08-21T04:05:10;15.48;;;10.23;;
70985;SDS011;58645;43.068;25.610;2022-08-21T04:07:37;18.67;;;10.38;;
70985;SDS011;58645;43.068;25.610;2022-08-21T04:10:03;14.55;;;9.80;;
70985;SDS011;58645;43.068;25.610;2022-08-21T04:12:31;15.57;;;9.65;;
70985;SDS011;58645;43.068;25.610;2022-08-21T04:14:57;14.88;;;9.40;;
70985;SDS011;58645;43.068;25.610;2022-08-21T04:17:23;14.90;;;9.73;;
70985;SDS011;58645;43.068;25.610;2022-08-21T04:19:48;13.05;;;9.35;;
70985;SDS011;58645;43.068;25.610;2022-08-21T04:22:15;13.65;;;8.82;;
70985;SDS011;58645;43.068;25.610;2022-08-21T04:24:41;11.45;;;8.60;;
70985;SDS011;58645;43.068;25.610;2022-08-21T04:27:07;13.55;;;8.50;;
70985;SDS011;58645;43.068;25.610;2022-08-21T04:29:33;14.70;;;8.85;;
70985;SDS011;58645;43.068;25.610;2022-08-21T04:31:59;12.98;;;8.98;;
70985;SDS011;58645;43.068;25.610;2022-08-21T04:34:24;10.95;;;7.75;;
70985;SDS011;58645;43.068;25.610;2022-08-21T04:36:50;15.32;;;8.88;;
70985;SDS011;58645;43.068;25.610;2022-08-21T04:39:16;13.07;;;9.90;;
70985;SDS011;58645;43.068;25.610;2022-08-21T04:41:41;14.68;;;8.68;;
70985;SDS011;58645;43.068;25.610;2022-08-21T04:44:07;12.90;;;9.43;;
70985;SDS011;58645;43.068;25.610;2022-08-21T04:46:33;14.88;;;9.18;;
70985;SDS011;58645;43.068;25.610;2022-08-21T04:49:00;14.18;;;9.52;;
70985;SDS011;58645;43.068;25.610;2022-08-21T04:54:07;16.67;;;8.73;;
70985;SDS011;58645;43.068;25.610;2022-08-21T04:56:44;16.83;;;10.63;;
70985;SDS011;58645;43.068;25.610;2022-08-21T04:59:27;15.65;;;10.63;;
70985;SDS011;58645;43.068;25.610;2022-08-21T05:01:56;16.45;;;9.82;;
70985;SDS011;58645;43.068;25.610;2022-08-21T05:04:24;16.00;;;11.93;;
70985;SDS011;58645;43.068;25.610;2022-08-21T05:06:52;15.73;;;11.32;;
70985;SDS011;58645;43.068;25.610;2022-08-21T05:09:21;15.48;;;10.60;;
70985;SDS011;58645;43.068;25.610;2022-08-21T05:11:48;18.88;;;11.48;;
70985;SDS011;58645;43.068;25.610;2022-08-21T05:14:15;15.30;;;10.45;;
70985;SDS011;58645;43.068;25.610;2022-08-21T05:16:41;13.30;;;10.15;;
70985;SDS011;58645;43.068;25.610;2022-08-21T05:19:09;14.00;;;9.65;;
70985;SDS011;58645;43.068;25.610;2022-08-21T05:21:36;15.13;;;8.95;;
70985;SDS011;58645;43.068;25.610;2022-08-21T05:24:04;14.30;;;8.73;;
70985;SDS011;58645;43.068;25.610;2022-08-21T05:26:30;12.93;;;8.02;;
70985;SDS011;58645;43.068;25.610;2022-08-21T05:28:56;12.27;;;8.13;;
70985;SDS011;58645;43.068;25.610;2022-08-21T05:33:47;12.18;;;8.75;;
70985;SDS011;58645;43.068;25.610;2022-08-21T05:36:13;12.93;;;8.20;;
70985;SDS011;58645;43.068;25.610;2022-08-21T05:38:39;14.90;;;8.88;;
70985;SDS011;58645;43.068;25.610;2022-08-21T05:41:05;13.05;;;8.68;;
70985;SDS011;58645;43.068;25.610;2022-08-21T05:43:32;13.52;;;9.00;;
70985;SDS011;58645;43.068;25.610;2022-08-21T05:46:01;11.18;;;8.70;;
70985;SDS011;58645;43.068;25.610;2022-08-21T05:48:29;14.80;;;8.93;;
70985;SDS011;58645;43.068;25.610;2022-08-21T05:50:56;12.05;;;8.85;;
70985;SDS011;58645;43.068;25.610;2022-08-21T05:53:22;13.30;;;9.95;;
70985;SDS011;58645;43.068;25.610;2022-08-21T05:55:49;14.40;;;9.00;;
70985;SDS011;58645;43.068;25.610;2022-08-21T05:58:17;13.43;;;10.60;;
70985;SDS011;58645;43.068;25.610;2022-08-21T06:00:45;16.08;;;8.77;;
70985;SDS011;58645;43.068;25.610;2022-08-21T06:03:13;13.93;;;9.30;;
70985;SDS011;58645;43.068;25.610;2022-08-21T06:05:42;14.95;;;9.13;;
70985;SDS011;58645;43.068;25.610;2022-08-21T06:08:08;13.20;;;8.43;;
70985;SDS011;58645;43.068;25.610;2022-08-21T06:12:59;11.68;;;8.00;;
70985;SDS011;58645;43.068;25.610;2022-08-21T06:17:51;13.10;;;9.00;;
70985;SDS011;58645;43.068;25.610;2022-08-21T06:20:18;11.57;;;9.48;;
70985;SDS011;58645;43.068;25.610;2022-08-21T06:25:10;14.13;;;9.10;;
70985;SDS011;58645;43.068;25.610;2022-08-21T06:30:02;12.95;;;8.05;;
70985;SDS011;58645;43.068;25.610;2022-08-21T06:32:29;13.13;;;8.50;;
70985;SDS011;58645;43.068;25.610;2022-08-21T06:37:20;14.55;;;8.88;;
70985;SDS011;58645;43.068;25.610;2022-08-21T06:42:15;13.95;;;9.60;;
70985;SDS011;58645;43.068;25.610;2022-08-21T06:44:42;12.70;;;9.70;;
70985;SDS011;58645;43.068;25.610;2022-08-21T06:47:07;14.38;;;9.70;;
70985;SDS011;58645;43.068;25.610;2022-08-21T06:49:33;11.98;;;8.73;;
70985;SDS011;58645;43.068;25.610;2022-08-21T06:52:00;12.68;;;11.00;;
70985;SDS011;58645;43.068;25.610;2022-08-21T06:54:26;16.48;;;10.05;;
70985;SDS011;58645;43.068;25.610;2022-08-21T06:59:18;12.55;;;9.68;;
70985;SDS011;58645;43.068;25.610;2022-08-21T07:01:44;14.52;;;9.23;;
70985;SDS011;58645;43.068;25.610;2022-08-21T07:06:36;11.85;;;9.45;;
70985;SDS011;58645;43.068;25.610;2022-08-21T07:11:28;10.27;;;8.10;;
70985;SDS011;58645;43.068;25.610;2022-08-21T07:13:54;16.05;;;8.63;;
70985;SDS011;58645;43.068;25.610;2022-08-21T07:16:21;14.23;;;9.38;;
70985;SDS011;58645;43.068;25.610;2022-08-21T07:18:48;10.45;;;8.52;;
70985;SDS011;58645;43.068;25.610;2022-08-21T07:21:14;11.43;;;8.13;;
70985;SDS011;58645;43.068;25.610;2022-08-21T07:23:42;12.40;;;6.97;;
70985;SDS011;58645;43.068;25.610;2022-08-21T07:26:14;13.32;;;7.30;;
70985;SDS011;58645;43.068;25.610;2022-08-21T07:28:42;11.32;;;7.88;;
70985;SDS011;58645;43.068;25.610;2022-08-21T07:31:08;9.35;;;7.78;;
70985;SDS011;58645;43.068;25.610;2022-08-21T07:33:35;12.45;;;7.70;;
70985;SDS011;58645;43.068;25.610;2022-08-21T07:36:01;10.75;;;7.93;;
70985;SDS011;58645;43.068;25.610;2022-08-21T07:38:27;12.32;;;8.73;;
70985;SDS011;58645;43.068;25.610;2022-08-21T07:40:54;10.73;;;7.88;;
70985;SDS011;58645;43.068;25.610;2022-08-21T07:43:21;11.55;;;8.13;;
70985;SDS011;58645;43.068;25.610;2022-08-21T07:45:47;10.85;;;7.70;;
70985;SDS011;58645;43.068;25.610;2022-08-21T07:48:14;10.35;;;8.20;;
70985;SDS011;58645;43.068;25.610;2022-08-21T07:50:40;10.45;;;8.30;;
70985;SDS011;58645;43.068;25.610;2022-08-21T07:53:07;12.50;;;7.93;;
70985;SDS011;58645;43.068;25.610;2022-08-21T07:55:33;13.75;;;8.45;;
70985;SDS011;58645;43.068;25.610;2022-08-21T07:57:59;14.30;;;8.10;;
70985;SDS011;58645;43.068;25.610;2022-08-21T08:00:25;9.90;;;7.55;;
70985;SDS011;58645;43.068;25.610;2022-08-21T08:02:53;12.15;;;8.40;;
70985;SDS011;58645;43.068;25.610;2022-08-21T08:05:20;11.02;;;9.02;;
70985;SDS011;58645;43.068;25.610;2022-08-21T08:07:48;13.40;;;8.65;;
70985;SDS011;58645;43.068;25.610;2022-08-21T08:10:14;10.48;;;7.90;;
70985;SDS011;58645;43.068;25.610;2022-08-21T08:12:41;13.05;;;7.97;;
70985;SDS011;58645;43.068;25.610;2022-08-21T08:15:09;12.55;;;8.45;;
70985;SDS011;58645;43.068;25.610;2022-08-21T08:17:37;11.00;;;9.07;;
70985;SDS011;58645;43.068;25.610;2022-08-21T08:20:04;10.02;;;8.40;;
70985;SDS011;58645;43.068;25.610;2022-08-21T08:22:35;10.80;;;8.45;;
70985;SDS011;58645;43.068;25.610;2022-08-21T08:25:02;18.58;;;9.63;;
70985;SDS011;58645;43.068;25.610;2022-08-21T08:27:29;14.10;;;9.30;;
70985;SDS011;58645;43.068;25.610;2022-08-21T08:29:55;13.40;;;8.45;;
70985;SDS011;58645;43.068;25.610;2022-08-21T08:32:21;11.95;;;8.35;;
70985;SDS011;58645;43.068;25.610;2022-08-21T08:34:47;14.85;;;9.27;;
70985;SDS011;58645;43.068;25.610;2022-08-21T08:37:15;11.95;;;7.95;;
70985;SDS011;58645;43.068;25.610;2022-08-21T08:39:41;10.35;;;8.23;;
70985;SDS011;58645;43.068;25.610;2022-08-21T08:44:42;10.35;;;7.38;;
70985;SDS011;58645;43.068;25.610;2022-08-21T08:47:10;9.18;;;6.43;;
70985;SDS011;58645;43.068;25.610;2022-08-21T08:52:35;9.88;;;6.35;;
70985;SDS011;58645;43.068;25.610;2022-08-21T08:55:06;10.43;;;6.97;;
70985;SDS011;58645;43.068;25.610;2022-08-21T08:57:36;9.20;;;6.30;;
70985;SDS011;58645;43.068;25.610;2022-08-21T09:00:05;7.97;;;5.78;;
70985;SDS011;58645;43.068;25.610;2022-08-21T09:02:35;10.30;;;6.82;;
70985;SDS011;58645;43.068;25.610;2022-08-21T09:05:04;8.63;;;6.97;;
70985;SDS011;58645;43.068;25.610;2022-08-21T09:07:47;8.45;;;6.32;;
70985;SDS011;58645;43.068;25.610;2022-08-21T09:10:22;6.82;;;5.10;;
70985;SDS011;58645;43.068;25.610;2022-08-21T09:12:56;9.52;;;5.38;;
70985;SDS011;58645;43.068;25.610;2022-08-21T09:15:30;8.48;;;5.50;;
70985;SDS011;58645;43.068;25.610;2022-08-21T09:19:03;10.10;;;5.57;;
70985;SDS011;58645;43.068;25.610;2022-08-21T09:21:37;10.00;;;5.60;;
70985;SDS011;58645;43.068;25.610;2022-08-21T09:24:31;7.28;;;5.88;;
70985;SDS011;58645;43.068;25.610;2022-08-21T09:27:08;9.15;;;4.97;;
70985;SDS011;58645;43.068;25.610;2022-08-21T09:29:44;8.68;;;5.53;;
70985;SDS011;58645;43.068;25.610;2022-08-21T09:32:27;9.85;;;6.07;;
70985;SDS011;58645;43.068;25.610;2022-08-21T09:34:55;7.57;;;5.20;;
70985;SDS011;58645;43.068;25.610;2022-08-21T09:37:23;9.95;;;6.07;;
70985;SDS011;58645;43.068;25.610;2022-08-21T09:39:49;10.68;;;5.07;;
70985;SDS011;58645;43.068;25.610;2022-08-21T09:42:21;7.35;;;5.15;;
70985;SDS011;58645;43.068;25.610;2022-08-21T09:45:14;9.55;;;5.10;;
70985;SDS011;58645;43.068;25.610;2022-08-21T09:47:42;12.75;;;5.85;;
70985;SDS011;58645;43.068;25.610;2022-08-21T09:50:16;7.57;;;4.90;;
70985;SDS011;58645;43.068;25.610;2022-08-21T09:52:51;8.35;;;5.50;;
70985;SDS011;58645;43.068;25.610;2022-08-21T09:55:34;8.68;;;5.00;;
70985;SDS011;58645;43.068;25.610;2022-08-21T09:58:29;8.15;;;5.15;;
70985;SDS011;58645;43.068;25.610;2022-08-21T10:00:58;7.30;;;4.15;;
70985;SDS011;58645;43.068;25.610;2022-08-21T10:03:25;8.30;;;5.32;;
70985;SDS011;58645;43.068;25.610;2022-08-21T10:05:59;8.85;;;4.43;;
70985;SDS011;58645;43.068;25.610;2022-08-21T10:08:30;9.65;;;4.75;;
70985;SDS011;58645;43.068;25.610;2022-08-21T10:11:03;6.95;;;4.90;;
70985;SDS011;58645;43.068;25.610;2022-08-21T10:16:25;6.57;;;4.53;;
70985;SDS011;58645;43.068;25.610;2022-08-21T10:27:03;8.25;;;5.05;;
70985;SDS011;58645;43.068;25.610;2022-08-21T10:30:15;8.32;;;4.63;;
70985;SDS011;58645;43.068;25.610;2022-08-21T10:32:56;9.60;;;4.55;;
70985;SDS011;58645;43.068;25.610;2022-08-21T10:41:14;7.30;;;4.43;;
70985;SDS011;58645;43.068;25.610;2022-08-21T10:51:44;7.85;;;5.25;;
70985;SDS011;58645;43.068;25.610;2022-08-21T10:57:27;8.10;;;5.05;;
70985;SDS011;58645;43.068;25.610;2022-08-21T11:00:08;6.05;;;4.53;;
70985;SDS011;58645;43.068;25.610;2022-08-21T11:02:38;13.20;;;6.05;;
70985;SDS011;58645;43.068;25.610;2022-08-21T11:05:14;14.68;;;9.80;;
70985;SDS011;58645;43.068;25.610;2022-08-21T11:07:55;12.73;;;4.97;;
70985;SDS011;58645;43.068;25.610;2022-08-21T11:13:19;11.25;;;5.20;;
70985;SDS011;58645;43.068;25.610;2022-08-21T11:15:56;5.95;;;4.40;;
70985;SDS011;58645;43.068;25.610;2022-08-21T11:18:53;7.63;;;5.43;;
70985;SDS011;58645;43.068;25.610;2022-08-21T11:23:54;7.40;;;5.32;;
70985;SDS011;58645;43.068;25.610;2022-08-21T11:26:34;11.70;;;4.05;;
70985;SDS011;58645;43.068;25.610;2022-08-21T11:29:09;8.02;;;3.88;;
70985;SDS011;58645;43.068;25.610;2022-08-21T11:31:48;7.97;;;3.90;;
70985;SDS011;58645;43.068;25.610;2022-08-21T11:37:27;9.02;;;3.85;;
70985;SDS011;58645;43.068;25.610;2022-08-21T11:43:26;7.00;;;3.85;;
70985;SDS011;58645;43.068;25.610;2022-08-21T11:48:59;6.80;;;3.15;;
70985;SDS011;58645;43.068;25.610;2022-08-21T11:51:42;7.65;;;3.67;;
70985;SDS011;58645;43.068;25.610;2022-08-21T12:02:16;7.50;;;4.53;;
70985;SDS011;58645;43.068;25.610;2022-08-21T12:04:56;9.65;;;4.13;;
70985;SDS011;58645;43.068;25.610;2022-08-21T12:07:39;8.05;;;4.15;;
70985;SDS011;58645;43.068;25.610;2022-08-21T12:10:12;8.73;;;3.53;;
70985;SDS011;58645;43.068;25.610;2022-08-21T12:12:40;11.32;;;3.67;;
70985;SDS011;58645;43.068;25.610;2022-08-21T12:18:00;6.82;;;3.08;;
70985;SDS011;58645;43.068;25.610;2022-08-21T12:25:43;9.65;;;3.28;;
70985;SDS011;58645;43.068;25.610;2022-08-21T12:28:13;10.75;;;4.28;;
70985;SDS011;58645;43.068;25.610;2022-08-21T12:30:46;9.00;;;4.28;;
70985;SDS011;58645;43.068;25.610;2022-08-21T12:35:52;9.02;;;3.75;;
70985;SDS011;58645;43.068;25.610;2022-08-21T12:41:30;10.32;;;4.43;;
70985;SDS011;58645;43.068;25.610;2022-08-21T12:44:12;8.82;;;3.65;;
70985;SDS011;58645;43.068;25.610;2022-08-21T12:49:26;7.63;;;3.70;;
70985;SDS011;58645;43.068;25.610;2022-08-21T12:52:20;9.77;;;4.68;;
70985;SDS011;58645;43.068;25.610;2022-08-21T12:54:46;10.10;;;4.55;;
70985;SDS011;58645;43.068;25.610;2022-08-21T12:57:21;11.18;;;4.15;;
70985;SDS011;58645;43.068;25.610;2022-08-21T12:59:59;8.32;;;5.43;;
70985;SDS011;58645;43.068;25.610;2022-08-21T13:02:30;8.20;;;4.03;;
70985;SDS011;58645;43.068;25.610;2022-08-21T13:05:02;8.35;;;3.97;;
70985;SDS011;58645;43.068;25.610;2022-08-21T13:07:31;9.02;;;4.30;;
70985;SDS011;58645;43.068;25.610;2022-08-21T13:12:26;8.95;;;4.47;;
70985;SDS011;58645;43.068;25.610;2022-08-21T13:14:55;8.40;;;4.65;;
70985;SDS011;58645;43.068;25.610;2022-08-21T13:17:23;9.20;;;5.28;;
70985;SDS011;58645;43.068;25.610;2022-08-21T13:19:54;10.52;;;4.82;;
70985;SDS011;58645;43.068;25.610;2022-08-21T13:22:42;8.40;;;5.25;;
70985;SDS011;58645;43.068;25.610;2022-08-21T13:25:10;10.45;;;5.80;;
70985;SDS011;58645;43.068;25.610;2022-08-21T13:27:37;11.20;;;7.20;;
70985;SDS011;58645;43.068;25.610;2022-08-21T13:32:33;8.27;;;5.13;;
70985;SDS011;58645;43.068;25.610;2022-08-21T13:35:17;11.90;;;7.03;;
70985;SDS011;58645;43.068;25.610;2022-08-21T13:37:51;12.35;;;7.68;;
70985;SDS011;58645;43.068;25.610;2022-08-21T13:40:39;13.43;;;6.85;;
70985;SDS011;58645;43.068;25.610;2022-08-21T13:43:15;7.28;;;5.60;;
70985;SDS011;58645;43.068;25.610;2022-08-21T13:45:47;7.53;;;4.20;;
70985;SDS011;58645;43.068;25.610;2022-08-21T13:48:15;9.13;;;4.65;;
70985;SDS011;58645;43.068;25.610;2022-08-21T13:50:41;9.68;;;4.75;;
70985;SDS011;58645;43.068;25.610;2022-08-21T13:56:09;10.48;;;5.25;;
70985;SDS011;58645;43.068;25.610;2022-08-21T13:58:46;8.20;;;5.93;;
70985;SDS011;58645;43.068;25.610;2022-08-21T14:01:19;7.82;;;4.90;;
70985;SDS011;58645;43.068;25.610;2022-08-21T14:03:53;8.93;;;6.00;;
70985;SDS011;58645;43.068;25.610;2022-08-21T14:06:25;12.90;;;6.05;;
70985;SDS011;58645;43.068;25.610;2022-08-21T14:08:54;14.35;;;8.82;;
70985;SDS011;58645;43.068;25.610;2022-08-21T14:11:32;9.05;;;5.97;;
70985;SDS011;58645;43.068;25.610;2022-08-21T14:14:01;11.63;;;6.63;;
70985;SDS011;58645;43.068;25.610;2022-08-21T14:19:35;8.60;;;5.97;;
70985;SDS011;58645;43.068;25.610;2022-08-21T14:25:04;12.52;;;8.68;;
70985;SDS011;58645;43.068;25.610;2022-08-21T14:27:31;15.13;;;9.75;;
70985;SDS011;58645;43.068;25.610;2022-08-21T14:30:00;9.95;;;5.07;;
70985;SDS011;58645;43.068;25.610;2022-08-21T14:32:36;8.18;;;4.47;;
70985;SDS011;58645;43.068;25.610;2022-08-21T14:35:04;7.72;;;3.50;;
70985;SDS011;58645;43.068;25.610;2022-08-21T14:37:31;12.25;;;5.80;;
70985;SDS011;58645;43.068;25.610;2022-08-21T14:42:22;21.83;;;10.48;;
70985;SDS011;58645;43.068;25.610;2022-08-21T14:44:49;16.05;;;9.25;;
70985;SDS011;58645;43.068;25.610;2022-08-21T14:47:15;17.05;;;11.05;;
70985;SDS011;58645;43.068;25.610;2022-08-21T14:49:41;16.98;;;10.95;;
70985;SDS011;58645;43.068;25.610;2022-08-21T14:52:08;9.23;;;5.90;;
70985;SDS011;58645;43.068;25.610;2022-08-21T14:57:04;10.98;;;6.68;;
70985;SDS011;58645;43.068;25.610;2022-08-21T14:59:34;8.75;;;5.93;;
70985;SDS011;58645;43.068;25.610;2022-08-21T15:02:01;9.68;;;5.75;;
70985;SDS011;58645;43.068;25.610;2022-08-21T15:04:29;6.93;;;4.80;;
70985;SDS011;58645;43.068;25.610;2022-08-21T15:06:55;7.55;;;4.78;;
70985;SDS011;58645;43.068;25.610;2022-08-21T15:09:21;7.05;;;4.25;;
70985;SDS011;58645;43.068;25.610;2022-08-21T15:11:49;6.45;;;4.03;;
70985;SDS011;58645;43.068;25.610;2022-08-21T15:14:20;7.18;;;5.07;;
70985;SDS011;58645;43.068;25.610;2022-08-21T15:16:49;12.95;;;9.50;;
70985;SDS011;58645;43.068;25.610;2022-08-21T15:19:16;13.90;;;8.75;;
70985;SDS011;58645;43.068;25.610;2022-08-21T15:21:42;10.52;;;6.25;;
70985;SDS011;58645;43.068;25.610;2022-08-21T15:24:08;11.63;;;7.35;;
70985;SDS011;58645;43.068;25.610;2022-08-21T15:26:34;12.18;;;6.80;;
70985;SDS011;58645;43.068;25.610;2022-08-21T15:29:01;15.50;;;8.07;;
70985;SDS011;58645;43.068;25.610;2022-08-21T15:31:27;9.75;;;6.10;;
70985;SDS011;58645;43.068;25.610;2022-08-21T15:33:53;9.75;;;6.20;;
70985;SDS011;58645;43.068;25.610;2022-08-21T15:36:20;12.15;;;6.55;;
70985;SDS011;58645;43.068;25.610;2022-08-21T15:38:46;14.25;;;6.25;;
70985;SDS011;58645;43.068;25.610;2022-08-21T15:43:48;7.90;;;5.32;;
70985;SDS011;58645;43.068;25.610;2022-08-21T15:46:16;10.63;;;6.35;;
70985;SDS011;58645;43.068;25.610;2022-08-21T15:48:43;10.35;;;7.15;;
70985;SDS011;58645;43.068;25.610;2022-08-21T15:51:11;13.80;;;7.28;;
70985;SDS011;58645;43.068;25.610;2022-08-21T15:53:38;11.10;;;6.57;;
70985;SDS011;58645;43.068;25.610;2022-08-21T15:56:06;8.63;;;5.53;;
70985;SDS011;58645;43.068;25.610;2022-08-21T15:58:38;7.22;;;4.53;;
70985;SDS011;58645;43.068;25.610;2022-08-21T16:03:30;9.52;;;5.53;;
70985;SDS011;58645;43.068;25.610;2022-08-21T16:05:56;11.10;;;5.25;;
70985;SDS011;58645;43.068;25.610;2022-08-21T16:10:47;9.80;;;5.68;;
70985;SDS011;58645;43.068;25.610;2022-08-21T16:15:51;11.38;;;5.95;;
70985;SDS011;58645;43.068;25.610;2022-08-21T16:18:17;10.38;;;5.72;;
70985;SDS011;58645;43.068;25.610;2022-08-21T16:20:44;9.30;;;5.63;;
70985;SDS011;58645;43.068;25.610;2022-08-21T16:23:10;10.05;;;7.00;;
70985;SDS011;58645;43.068;25.610;2022-08-21T16:25:36;16.23;;;10.40;;
70985;SDS011;58645;43.068;25.610;2022-08-21T16:28:04;16.10;;;11.38;;
70985;SDS011;58645;43.068;25.610;2022-08-21T16:30:32;19.83;;;13.43;;
70985;SDS011;58645;43.068;25.610;2022-08-21T16:33:03;16.83;;;12.40;;
70985;SDS011;58645;43.068;25.610;2022-08-21T16:35:30;18.02;;;12.63;;
70985;SDS011;58645;43.068;25.610;2022-08-21T16:37:56;16.92;;;10.77;;
70985;SDS011;58645;43.068;25.610;2022-08-21T16:40:22;19.20;;;12.35;;
70985;SDS011;58645;43.068;25.610;2022-08-21T16:42:51;20.15;;;12.35;;
70985;SDS011;58645;43.068;25.610;2022-08-21T16:45:17;18.20;;;9.95;;
70985;SDS011;58645;43.068;25.610;2022-08-21T16:47:45;14.13;;;10.07;;
70985;SDS011;58645;43.068;25.610;2022-08-21T16:50:15;16.05;;;8.88;;
70985;SDS011;58645;43.068;25.610;2022-08-21T16:52:44;13.20;;;9.02;;
70985;SDS011;58645;43.068;25.610;2022-08-21T16:55:10;12.75;;;7.40;;
70985;SDS011;58645;43.068;25.610;2022-08-21T16:57:36;9.63;;;6.80;;
70985;SDS011;58645;43.068;25.610;2022-08-21T17:00:03;8.85;;;6.43;;
70985;SDS011;58645;43.068;25.610;2022-08-21T17:02:36;10.98;;;7.25;;